Impacts TAF Board
For situational awareness. Not to be used for flight planning purposes.
IDs:

KGUC - Gunnison Arpt, CO, US

Issued at 1727 UTC 01 Feb 2023
Updated at 2138 UTC 01 Feb 2023
Potential Impact None Slight Moderate High
Time2056Z 01/22Z 01/23Z 02/00Z 02/01Z 02/02Z 02/03Z 02/04Z 02/05Z 02/06Z 02/07Z 02/08Z 02/09Z 02/10Z>>
Type OBS PRVL PRVL PRVL PRVL PRVL PRVL PRVL PRVL PRVL PRVL PRVL PRVL PRVL
VIS 10 >6 >6 >6 >6 >6 >6 >6 >6 >6 >6 >6 >6 >6
CIG -- -- -- -- -- -- -- -- -- -- -- -- -- --
Cover CLR SKC SKC FEW FEW FEW FEW FEW FEW FEW FEW FEW FEW FEW
FltCat VFR VFR VFR VFR VFR VFR VFR VFR VFR VFR VFR VFR VFR VFR
WX -- -- -- -- -- -- -- -- -- -- -- -- -- --
WDir 140 VRB VRB 50 50 50 50 50 50 50 50 50 50 50
WSpd 4 3 3 5 5 5 5 5 5 5 5 5 5 5
WGst -- -- -- -- -- -- -- -- -- -- -- -- -- --
WSHgt -- -- -- -- -- -- -- -- -- -- -- -- -- --
WSDir -- -- -- -- -- -- -- -- -- -- -- -- -- --
WSSpd -- -- -- -- -- -- -- -- -- -- -- -- -- --
R06/24
XWnd -4 VRB VRB 2 2 2 2 2 2 2 2 2 2 2
HWnd 2 VRB VRB 5 5 5 5 5 5 5 5 5 5 5
R17/35
XWnd 3 VRB VRB 4 4 4 4 4 4 4 4 4 4 4
HWnd 3 VRB VRB -3 -3 -3 -3 -3 -3 -3 -3 -3 -3 -3

NOTE: LAMP data beyond the time of the TAF data is denoted as LAMP in Type and colored magenta.

Raw TAF
KGUC 011727Z 0118/0218 VRB03KT P6SM SKC
  FM020000 05005KT P6SM FEW080


Raw METAR
KGUC 012056Z AUTO 14004KT 10SM CLR M16/M21 A3022 RMK AO2 SLP386 T11561206 56028 FZRANO
KGUC 011956Z AUTO 00000KT 10SM CLR M17/M22 A3025 RMK AO2 SLP404 T11721217 FZRANO

METAR Board
Radar Display
Forecast Discussion

For situational awareness. Not to be used for flight planning purposes.